2019/09/23 06:50 EDDH 230650Z 10004KT CAVOK 14/09 Q1012 NOSIG